sensor_id;sensor_type;location;lat;lon;timestamp;temperature;humidity
5059;DHT22;2548;52.050;11.036;2023-06-22T00:02:22;19.40;99.90
5059;DHT22;2548;52.050;11.036;2023-06-22T00:04:49;19.40;99.90
5059;DHT22;2548;52.050;11.036;2023-06-22T00:07:16;19.30;99.90
5059;DHT22;2548;52.050;11.036;2023-06-22T00:09:44;19.30;99.90
5059;DHT22;2548;52.050;11.036;2023-06-22T00:12:11;19.30;99.90
5059;DHT22;2548;52.050;11.036;2023-06-22T00:14:39;19.30;99.90
5059;DHT22;2548;52.050;11.036;2023-06-22T00:17:08;19.20;99.90
5059;DHT22;2548;52.050;11.036;2023-06-22T00:19:35;19.10;99.90
5059;DHT22;2548;52.050;11.036;2023-06-22T00:22:06;19.10;99.90
5059;DHT22;2548;52.050;11.036;2023-06-22T00:24:33;19.00;99.90
5059;DHT22;2548;52.050;11.036;2023-06-22T00:27:01;18.90;99.90
5059;DHT22;2548;52.050;11.036;2023-06-22T00:29:30;18.90;99.90
5059;DHT22;2548;52.050;11.036;2023-06-22T00:31:57;18.90;99.90
5059;DHT22;2548;52.050;11.036;2023-06-22T00:34:26;18.90;99.90
5059;DHT22;2548;52.050;11.036;2023-06-22T00:36:53;18.80;99.90
5059;DHT22;2548;52.050;11.036;2023-06-22T00:39:21;18.70;99.90
5059;DHT22;2548;52.050;11.036;2023-06-22T00:41:50;18.70;99.90
5059;DHT22;2548;52.050;11.036;2023-06-22T00:44:17;18.70;99.90
5059;DHT22;2548;52.050;11.036;2023-06-22T00:46:45;18.70;99.90
5059;DHT22;2548;52.050;11.036;2023-06-22T00:49:12;18.60;99.90
5059;DHT22;2548;52.050;11.036;2023-06-22T00:51:42;18.60;99.90
5059;DHT22;2548;52.050;11.036;2023-06-22T00:54:12;18.60;99.90
5059;DHT22;2548;52.050;11.036;2023-06-22T00:56:40;18.60;99.90
5059;DHT22;2548;52.050;11.036;2023-06-22T00:59:08;18.60;99.90
5059;DHT22;2548;52.050;11.036;2023-06-22T01:01:38;18.60;99.90
5059;DHT22;2548;52.050;11.036;2023-06-22T01:04:07;18.60;99.90
5059;DHT22;2548;52.050;11.036;2023-06-22T01:06:38;18.70;99.90
5059;DHT22;2548;52.050;11.036;2023-06-22T01:09:14;18.60;99.90
5059;DHT22;2548;52.050;11.036;2023-06-22T01:11:45;18.60;99.90
5059;DHT22;2548;52.050;11.036;2023-06-22T01:14:22;18.50;99.90
5059;DHT22;2548;52.050;11.036;2023-06-22T01:16:51;18.50;99.90
5059;DHT22;2548;52.050;11.036;2023-06-22T01:19:34;18.50;99.90
5059;DHT22;2548;52.050;11.036;2023-06-22T01:22:03;18.50;99.90
5059;DHT22;2548;52.050;11.036;2023-06-22T01:24:41;18.50;99.90
5059;DHT22;2548;52.050;11.036;2023-06-22T01:27:20;18.40;99.90
5059;DHT22;2548;52.050;11.036;2023-06-22T01:29:56;18.30;99.90
5059;DHT22;2548;52.050;11.036;2023-06-22T01:32:28;18.20;99.90
5059;DHT22;2548;52.050;11.036;2023-06-22T01:34:59;18.20;99.90
5059;DHT22;2548;52.050;11.036;2023-06-22T01:37:27;18.10;99.90
5059;DHT22;2548;52.050;11.036;2023-06-22T01:39:58;18.00;99.90
5059;DHT22;2548;52.050;11.036;2023-06-22T01:42:26;18.10;99.90
5059;DHT22;2548;52.050;11.036;2023-06-22T01:44:56;18.00;99.90
5059;DHT22;2548;52.050;11.036;2023-06-22T01:47:24;18.00;99.90
5059;DHT22;2548;52.050;11.036;2023-06-22T01:49:52;17.90;99.90
5059;DHT22;2548;52.050;11.036;2023-06-22T01:52:20;17.90;99.90
5059;DHT22;2548;52.050;11.036;2023-06-22T01:54:48;17.80;99.90
5059;DHT22;2548;52.050;11.036;2023-06-22T01:57:16;17.80;99.90
5059;DHT22;2548;52.050;11.036;2023-06-22T01:59:48;17.70;99.90
5059;DHT22;2548;52.050;11.036;2023-06-22T02:02:20;17.70;99.90
5059;DHT22;2548;52.050;11.036;2023-06-22T02:04:57;17.60;99.90
5059;DHT22;2548;52.050;11.036;2023-06-22T02:07:29;17.60;99.90
5059;DHT22;2548;52.050;11.036;2023-06-22T02:10:02;17.70;99.90
5059;DHT22;2548;52.050;11.036;2023-06-22T02:12:32;17.60;99.90
5059;DHT22;2548;52.050;11.036;2023-06-22T02:15:01;17.60;99.90
5059;DHT22;2548;52.050;11.036;2023-06-22T02:17:30;17.60;99.90
5059;DHT22;2548;52.050;11.036;2023-06-22T02:20:02;17.70;99.90
5059;DHT22;2548;52.050;11.036;2023-06-22T02:22:35;17.70;99.90
5059;DHT22;2548;52.050;11.036;2023-06-22T02:25:03;17.70;99.90
5059;DHT22;2548;52.050;11.036;2023-06-22T02:27:31;17.80;99.90
5059;DHT22;2548;52.050;11.036;2023-06-22T02:29:58;17.80;99.90
5059;DHT22;2548;52.050;11.036;2023-06-22T02:32:26;17.70;99.90
5059;DHT22;2548;52.050;11.036;2023-06-22T02:34:54;17.70;99.90
5059;DHT22;2548;52.050;11.036;2023-06-22T02:37:24;17.60;99.90
5059;DHT22;2548;52.050;11.036;2023-06-22T02:39:56;17.70;99.90
5059;DHT22;2548;52.050;11.036;2023-06-22T02:42:23;17.70;99.90
5059;DHT22;2548;52.050;11.036;2023-06-22T02:44:51;17.70;99.90
5059;DHT22;2548;52.050;11.036;2023-06-22T02:47:20;17.70;99.90
5059;DHT22;2548;52.050;11.036;2023-06-22T02:49:47;17.80;99.90
5059;DHT22;2548;52.050;11.036;2023-06-22T02:52:17;17.80;99.90
5059;DHT22;2548;52.050;11.036;2023-06-22T02:54:44;17.80;99.90
5059;DHT22;2548;52.050;11.036;2023-06-22T02:57:13;17.80;99.90
5059;DHT22;2548;52.050;11.036;2023-06-22T02:59:42;17.80;99.90
5059;DHT22;2548;52.050;11.036;2023-06-22T03:02:11;17.80;99.90
5059;DHT22;2548;52.050;11.036;2023-06-22T03:04:40;17.80;99.90
5059;DHT22;2548;52.050;11.036;2023-06-22T03:07:08;17.80;99.90
5059;DHT22;2548;52.050;11.036;2023-06-22T03:09:36;17.80;99.90
5059;DHT22;2548;52.050;11.036;2023-06-22T03:12:05;17.70;99.90
5059;DHT22;2548;52.050;11.036;2023-06-22T03:14:48;17.70;99.90
5059;DHT22;2548;52.050;11.036;2023-06-22T03:17:16;17.60;99.90
5059;DHT22;2548;52.050;11.036;2023-06-22T03:19:43;17.70;99.90
5059;DHT22;2548;52.050;11.036;2023-06-22T03:22:11;17.70;99.90
5059;DHT22;2548;52.050;11.036;2023-06-22T03:24:40;17.80;99.90
5059;DHT22;2548;52.050;11.036;2023-06-22T03:27:07;17.80;99.90
5059;DHT22;2548;52.050;11.036;2023-06-22T03:29:35;17.80;99.90
5059;DHT22;2548;52.050;11.036;2023-06-22T03:32:03;17.90;99.90
5059;DHT22;2548;52.050;11.036;2023-06-22T03:34:31;17.90;99.90
5059;DHT22;2548;52.050;11.036;2023-06-22T03:37:00;17.90;99.90
5059;DHT22;2548;52.050;11.036;2023-06-22T03:39:28;17.90;99.90
5059;DHT22;2548;52.050;11.036;2023-06-22T03:41:57;17.90;99.90
5059;DHT22;2548;52.050;11.036;2023-06-22T03:44:24;17.90;99.90
5059;DHT22;2548;52.050;11.036;2023-06-22T03:46:52;17.90;99.90
5059;DHT22;2548;52.050;11.036;2023-06-22T03:49:19;17.90;99.90
5059;DHT22;2548;52.050;11.036;2023-06-22T03:51:47;18.00;99.90
5059;DHT22;2548;52.050;11.036;2023-06-22T03:54:14;18.00;99.90
5059;DHT22;2548;52.050;11.036;2023-06-22T03:56:41;18.00;99.90
5059;DHT22;2548;52.050;11.036;2023-06-22T03:59:10;18.00;99.90
5059;DHT22;2548;52.050;11.036;2023-06-22T04:01:38;18.00;99.90
5059;DHT22;2548;52.050;11.036;2023-06-22T04:04:05;18.10;99.90
5059;DHT22;2548;52.050;11.036;2023-06-22T04:06:33;18.10;99.90
5059;DHT22;2548;52.050;11.036;2023-06-22T04:09:01;18.20;99.90
5059;DHT22;2548;52.050;11.036;2023-06-22T04:11:29;18.20;99.90
5059;DHT22;2548;52.050;11.036;2023-06-22T04:13:56;18.30;99.90
5059;DHT22;2548;52.050;11.036;2023-06-22T04:16:25;18.40;99.90
5059;DHT22;2548;52.050;11.036;2023-06-22T04:18:52;18.40;99.90
5059;DHT22;2548;52.050;11.036;2023-06-22T04:21:20;18.60;99.90
5059;DHT22;2548;52.050;11.036;2023-06-22T04:23:47;18.60;99.90
5059;DHT22;2548;52.050;11.036;2023-06-22T04:26:15;18.70;99.90
5059;DHT22;2548;52.050;11.036;2023-06-22T04:28:42;18.70;99.90
5059;DHT22;2548;52.050;11.036;2023-06-22T04:31:16;18.90;99.90
5059;DHT22;2548;52.050;11.036;2023-06-22T04:33:45;18.90;99.90
5059;DHT22;2548;52.050;11.036;2023-06-22T04:36:12;19.00;99.90
5059;DHT22;2548;52.050;11.036;2023-06-22T04:38:41;19.10;99.90
5059;DHT22;2548;52.050;11.036;2023-06-22T04:41:10;19.20;99.90
5059;DHT22;2548;52.050;11.036;2023-06-22T04:43:55;19.30;99.90
5059;DHT22;2548;52.050;11.036;2023-06-22T04:46:26;19.30;99.90
5059;DHT22;2548;52.050;11.036;2023-06-22T04:48:55;19.30;99.90
5059;DHT22;2548;52.050;11.036;2023-06-22T04:51:22;19.40;99.90
5059;DHT22;2548;52.050;11.036;2023-06-22T04:53:55;19.40;99.90
5059;DHT22;2548;52.050;11.036;2023-06-22T04:56:30;19.50;99.90
5059;DHT22;2548;52.050;11.036;2023-06-22T04:58:58;19.60;99.90
5059;DHT22;2548;52.050;11.036;2023-06-22T05:01:26;19.60;99.90
5059;DHT22;2548;52.050;11.036;2023-06-22T05:03:55;19.70;99.90
5059;DHT22;2548;52.050;11.036;2023-06-22T05:06:24;19.80;99.90
5059;DHT22;2548;52.050;11.036;2023-06-22T05:08:53;19.90;99.90
5059;DHT22;2548;52.050;11.036;2023-06-22T05:11:24;19.90;99.90
5059;DHT22;2548;52.050;11.036;2023-06-22T05:13:52;19.80;99.90
5059;DHT22;2548;52.050;11.036;2023-06-22T05:16:20;20.00;99.90
5059;DHT22;2548;52.050;11.036;2023-06-22T05:18:55;20.10;99.90
5059;DHT22;2548;52.050;11.036;2023-06-22T05:21:24;20.20;99.90
5059;DHT22;2548;52.050;11.036;2023-06-22T05:23:52;20.30;99.90
5059;DHT22;2548;52.050;11.036;2023-06-22T05:26:20;20.40;99.90
5059;DHT22;2548;52.050;11.036;2023-06-22T05:28:48;20.50;99.90
5059;DHT22;2548;52.050;11.036;2023-06-22T05:31:16;20.60;99.90
5059;DHT22;2548;52.050;11.036;2023-06-22T05:33:46;20.70;99.90
5059;DHT22;2548;52.050;11.036;2023-06-22T05:36:15;20.70;99.90
5059;DHT22;2548;52.050;11.036;2023-06-22T05:38:43;20.70;99.90
5059;DHT22;2548;52.050;11.036;2023-06-22T05:41:11;20.70;99.90
5059;DHT22;2548;52.050;11.036;2023-06-22T05:43:42;20.80;99.90
5059;DHT22;2548;52.050;11.036;2023-06-22T05:46:11;20.80;99.90
5059;DHT22;2548;52.050;11.036;2023-06-22T05:48:39;20.80;99.90
5059;DHT22;2548;52.050;11.036;2023-06-22T05:51:07;20.90;99.90
5059;DHT22;2548;52.050;11.036;2023-06-22T05:53:36;21.00;99.90
5059;DHT22;2548;52.050;11.036;2023-06-22T05:56:04;21.10;99.90
5059;DHT22;2548;52.050;11.036;2023-06-22T05:58:31;21.20;99.90
5059;DHT22;2548;52.050;11.036;2023-06-22T06:00:59;21.20;99.90
5059;DHT22;2548;52.050;11.036;2023-06-22T06:03:30;21.30;99.90
5059;DHT22;2548;52.050;11.036;2023-06-22T06:06:00;21.30;99.90
5059;DHT22;2548;52.050;11.036;2023-06-22T06:08:31;21.40;99.90
5059;DHT22;2548;52.050;11.036;2023-06-22T06:11:04;21.40;99.90
5059;DHT22;2548;52.050;11.036;2023-06-22T06:13:36;21.50;99.90
5059;DHT22;2548;52.050;11.036;2023-06-22T06:16:07;21.50;99.90
5059;DHT22;2548;52.050;11.036;2023-06-22T06:18:35;21.60;99.90
5059;DHT22;2548;52.050;11.036;2023-06-22T06:21:11;21.70;99.90
5059;DHT22;2548;52.050;11.036;2023-06-22T06:23:39;21.80;99.90
5059;DHT22;2548;52.050;11.036;2023-06-22T06:26:08;21.80;99.90
5059;DHT22;2548;52.050;11.036;2023-06-22T06:28:39;21.90;99.90
5059;DHT22;2548;52.050;11.036;2023-06-22T06:31:07;22.00;99.90
5059;DHT22;2548;52.050;11.036;2023-06-22T06:33:35;22.10;99.90
5059;DHT22;2548;52.050;11.036;2023-06-22T06:36:04;22.30;99.90
5059;DHT22;2548;52.050;11.036;2023-06-22T06:38:38;22.30;99.90
5059;DHT22;2548;52.050;11.036;2023-06-22T06:41:07;22.50;99.90
5059;DHT22;2548;52.050;11.036;2023-06-22T06:43:35;22.60;99.90
5059;DHT22;2548;52.050;11.036;2023-06-22T06:46:03;22.70;99.90
5059;DHT22;2548;52.050;11.036;2023-06-22T06:48:30;22.70;99.90
5059;DHT22;2548;52.050;11.036;2023-06-22T06:50:58;22.80;99.90
5059;DHT22;2548;52.050;11.036;2023-06-22T06:53:32;22.80;99.90
5059;DHT22;2548;52.050;11.036;2023-06-22T06:56:00;22.90;99.90
5059;DHT22;2548;52.050;11.036;2023-06-22T06:58:33;22.90;99.90
5059;DHT22;2548;52.050;11.036;2023-06-22T07:01:01;23.00;99.90
5059;DHT22;2548;52.050;11.036;2023-06-22T07:03:32;23.00;99.90
5059;DHT22;2548;52.050;11.036;2023-06-22T07:05:59;23.00;99.90
5059;DHT22;2548;52.050;11.036;2023-06-22T07:08:27;23.00;99.90
5059;DHT22;2548;52.050;11.036;2023-06-22T07:10:55;23.10;99.90
5059;DHT22;2548;52.050;11.036;2023-06-22T07:13:22;23.10;99.90
5059;DHT22;2548;52.050;11.036;2023-06-22T07:15:51;23.10;99.90
5059;DHT22;2548;52.050;11.036;2023-06-22T07:18:19;23.30;99.90
5059;DHT22;2548;52.050;11.036;2023-06-22T07:20:50;23.40;99.90
5059;DHT22;2548;52.050;11.036;2023-06-22T07:23:18;23.40;99.90
5059;DHT22;2548;52.050;11.036;2023-06-22T07:25:48;23.50;99.90
5059;DHT22;2548;52.050;11.036;2023-06-22T07:28:16;23.50;99.90
5059;DHT22;2548;52.050;11.036;2023-06-22T07:30:46;23.60;99.90
5059;DHT22;2548;52.050;11.036;2023-06-22T07:33:16;23.60;99.90
5059;DHT22;2548;52.050;11.036;2023-06-22T07:35:43;23.80;99.90
5059;DHT22;2548;52.050;11.036;2023-06-22T07:38:13;23.90;99.90
5059;DHT22;2548;52.050;11.036;2023-06-22T07:40:42;24.10;99.90
5059;DHT22;2548;52.050;11.036;2023-06-22T07:43:13;24.40;99.90
5059;DHT22;2548;52.050;11.036;2023-06-22T07:45:48;24.40;99.90
5059;DHT22;2548;52.050;11.036;2023-06-22T07:48:20;24.40;99.90
5059;DHT22;2548;52.050;11.036;2023-06-22T07:50:49;24.40;99.90
5059;DHT22;2548;52.050;11.036;2023-06-22T07:53:23;24.40;99.90
5059;DHT22;2548;52.050;11.036;2023-06-22T07:55:51;24.40;99.90
5059;DHT22;2548;52.050;11.036;2023-06-22T07:58:22;24.40;99.90
5059;DHT22;2548;52.050;11.036;2023-06-22T08:00:50;24.40;99.90
5059;DHT22;2548;52.050;11.036;2023-06-22T08:03:19;24.50;99.90
5059;DHT22;2548;52.050;11.036;2023-06-22T08:05:50;24.60;99.90
5059;DHT22;2548;52.050;11.036;2023-06-22T08:08:18;24.70;99.90
5059;DHT22;2548;52.050;11.036;2023-06-22T08:10:46;24.90;99.90
5059;DHT22;2548;52.050;11.036;2023-06-22T08:13:14;25.00;99.90
5059;DHT22;2548;52.050;11.036;2023-06-22T08:15:42;25.20;99.90
5059;DHT22;2548;52.050;11.036;2023-06-22T08:18:09;25.30;99.90
5059;DHT22;2548;52.050;11.036;2023-06-22T08:20:45;25.50;99.90
5059;DHT22;2548;52.050;11.036;2023-06-22T08:23:12;25.60;99.90
5059;DHT22;2548;52.050;11.036;2023-06-22T08:25:56;25.60;99.90
5059;DHT22;2548;52.050;11.036;2023-06-22T08:28:38;25.60;99.90
5059;DHT22;2548;52.050;11.036;2023-06-22T08:31:06;25.60;99.90
5059;DHT22;2548;52.050;11.036;2023-06-22T08:33:37;25.60;99.90
5059;DHT22;2548;52.050;11.036;2023-06-22T08:36:09;25.70;99.90
5059;DHT22;2548;52.050;11.036;2023-06-22T08:38:37;25.70;99.90
5059;DHT22;2548;52.050;11.036;2023-06-22T08:41:05;25.70;99.90
5059;DHT22;2548;52.050;11.036;2023-06-22T08:43:32;25.70;99.90
5059;DHT22;2548;52.050;11.036;2023-06-22T08:46:00;25.60;99.90
5059;DHT22;2548;52.050;11.036;2023-06-22T08:48:31;25.60;99.90
5059;DHT22;2548;52.050;11.036;2023-06-22T08:51:01;25.70;99.90
5059;DHT22;2548;52.050;11.036;2023-06-22T08:53:31;25.70;99.90
5059;DHT22;2548;52.050;11.036;2023-06-22T08:56:01;25.70;99.90
5059;DHT22;2548;52.050;11.036;2023-06-22T08:58:38;25.60;99.90
5059;DHT22;2548;52.050;11.036;2023-06-22T09:01:09;25.60;99.90
5059;DHT22;2548;52.050;11.036;2023-06-22T09:03:37;25.60;99.90
5059;DHT22;2548;52.050;11.036;2023-06-22T09:06:05;25.60;99.90
5059;DHT22;2548;52.050;11.036;2023-06-22T09:08:36;25.70;99.90
5059;DHT22;2548;52.050;11.036;2023-06-22T09:11:07;25.60;99.90
5059;DHT22;2548;52.050;11.036;2023-06-22T09:13:35;25.50;99.90
5059;DHT22;2548;52.050;11.036;2023-06-22T09:16:03;25.50;99.90
5059;DHT22;2548;52.050;11.036;2023-06-22T09:18:31;25.50;99.90
5059;DHT22;2548;52.050;11.036;2023-06-22T09:20:58;25.50;99.90
5059;DHT22;2548;52.050;11.036;2023-06-22T09:23:26;25.50;99.90
5059;DHT22;2548;52.050;11.036;2023-06-22T09:25:55;25.70;99.90
5059;DHT22;2548;52.050;11.036;2023-06-22T09:31:02;26.50;99.90
5059;DHT22;2548;52.050;11.036;2023-06-22T09:33:30;26.80;99.90
5059;DHT22;2548;52.050;11.036;2023-06-22T09:36:04;27.10;99.90
5059;DHT22;2548;52.050;11.036;2023-06-22T09:38:34;27.30;99.90
5059;DHT22;2548;52.050;11.036;2023-06-22T09:41:04;27.60;99.90
5059;DHT22;2548;52.050;11.036;2023-06-22T09:43:34;27.60;99.90
5059;DHT22;2548;52.050;11.036;2023-06-22T09:46:02;27.40;99.90
5059;DHT22;2548;52.050;11.036;2023-06-22T09:48:36;27.30;99.90
5059;DHT22;2548;52.050;11.036;2023-06-22T09:51:03;27.20;99.90
5059;DHT22;2548;52.050;11.036;2023-06-22T09:53:31;27.10;99.90
5059;DHT22;2548;52.050;11.036;2023-06-22T09:56:05;27.10;99.90
5059;DHT22;2548;52.050;11.036;2023-06-22T09:58:39;27.30;99.90
5059;DHT22;2548;52.050;11.036;2023-06-22T10:01:07;27.50;99.90
5059;DHT22;2548;52.050;11.036;2023-06-22T10:03:35;27.70;99.90
5059;DHT22;2548;52.050;11.036;2023-06-22T10:06:02;28.00;99.90
5059;DHT22;2548;52.050;11.036;2023-06-22T10:08:30;28.30;99.90
5059;DHT22;2548;52.050;11.036;2023-06-22T10:10:58;28.40;99.90
5059;DHT22;2548;52.050;11.036;2023-06-22T10:13:27;28.50;99.90
5059;DHT22;2548;52.050;11.036;2023-06-22T10:15:54;28.60;99.90
5059;DHT22;2548;52.050;11.036;2023-06-22T10:18:22;28.80;99.90
5059;DHT22;2548;52.050;11.036;2023-06-22T10:20:51;28.90;99.90
5059;DHT22;2548;52.050;11.036;2023-06-22T10:23:19;28.90;99.90
5059;DHT22;2548;52.050;11.036;2023-06-22T10:25:53;29.00;99.90
5059;DHT22;2548;52.050;11.036;2023-06-22T10:28:20;29.10;99.90
5059;DHT22;2548;52.050;11.036;2023-06-22T10:30:50;29.10;99.90
5059;DHT22;2548;52.050;11.036;2023-06-22T10:33:17;29.10;99.90
5059;DHT22;2548;52.050;11.036;2023-06-22T10:35:45;29.00;99.90
5059;DHT22;2548;52.050;11.036;2023-06-22T10:38:13;28.80;99.90
5059;DHT22;2548;52.050;11.036;2023-06-22T10:40:46;28.80;99.90
5059;DHT22;2548;52.050;11.036;2023-06-22T10:43:13;28.90;99.90
5059;DHT22;2548;52.050;11.036;2023-06-22T10:45:41;28.90;99.90
5059;DHT22;2548;52.050;11.036;2023-06-22T10:48:10;29.10;99.90
5059;DHT22;2548;52.050;11.036;2023-06-22T10:50:44;29.30;99.90
5059;DHT22;2548;52.050;11.036;2023-06-22T10:53:14;29.50;99.90
5059;DHT22;2548;52.050;11.036;2023-06-22T10:55:42;29.60;99.90
5059;DHT22;2548;52.050;11.036;2023-06-22T10:58:09;29.70;99.90
5059;DHT22;2548;52.050;11.036;2023-06-22T11:00:43;29.80;99.90
5059;DHT22;2548;52.050;11.036;2023-06-22T11:03:12;29.90;99.90
5059;DHT22;2548;52.050;11.036;2023-06-22T11:05:40;29.60;99.90
5059;DHT22;2548;52.050;11.036;2023-06-22T11:08:14;29.40;99.90
5059;DHT22;2548;52.050;11.036;2023-06-22T11:10:42;29.10;99.90
5059;DHT22;2548;52.050;11.036;2023-06-22T11:13:10;29.20;99.90
5059;DHT22;2548;52.050;11.036;2023-06-22T11:15:38;29.40;99.90
5059;DHT22;2548;52.050;11.036;2023-06-22T11:18:06;29.70;99.90
5059;DHT22;2548;52.050;11.036;2023-06-22T11:20:35;29.60;99.90
5059;DHT22;2548;52.050;11.036;2023-06-22T11:23:05;29.60;99.90
5059;DHT22;2548;52.050;11.036;2023-06-22T11:25:36;29.60;99.90
5059;DHT22;2548;52.050;11.036;2023-06-22T11:28:04;29.80;99.90
5059;DHT22;2548;52.050;11.036;2023-06-22T11:30:32;30.20;99.90
5059;DHT22;2548;52.050;11.036;2023-06-22T11:33:00;30.50;99.90
5059;DHT22;2548;52.050;11.036;2023-06-22T11:35:28;30.50;99.90
5059;DHT22;2548;52.050;11.036;2023-06-22T11:37:57;30.70;99.90
5059;DHT22;2548;52.050;11.036;2023-06-22T11:40:24;30.80;99.90
5059;DHT22;2548;52.050;11.036;2023-06-22T11:42:52;30.50;99.90
5059;DHT22;2548;52.050;11.036;2023-06-22T11:45:20;30.50;99.90
5059;DHT22;2548;52.050;11.036;2023-06-22T11:47:47;30.60;99.90
5059;DHT22;2548;52.050;11.036;2023-06-22T11:50:15;30.70;99.90
5059;DHT22;2548;52.050;11.036;2023-06-22T11:52:43;30.80;99.90
5059;DHT22;2548;52.050;11.036;2023-06-22T11:55:12;30.90;99.90
5059;DHT22;2548;52.050;11.036;2023-06-22T11:57:54;30.70;99.90
5059;DHT22;2548;52.050;11.036;2023-06-22T12:00:26;30.50;99.90
5059;DHT22;2548;52.050;11.036;2023-06-22T12:02:53;30.10;99.90
5059;DHT22;2548;52.050;11.036;2023-06-22T12:05:24;29.90;99.90
5059;DHT22;2548;52.050;11.036;2023-06-22T12:07:57;29.90;99.90
5059;DHT22;2548;52.050;11.036;2023-06-22T12:10:32;30.00;99.90
5059;DHT22;2548;52.050;11.036;2023-06-22T12:13:00;30.30;99.90
5059;DHT22;2548;52.050;11.036;2023-06-22T12:15:28;30.30;99.90
5059;DHT22;2548;52.050;11.036;2023-06-22T12:17:55;30.50;99.90
5059;DHT22;2548;52.050;11.036;2023-06-22T12:20:29;30.70;99.90
5059;DHT22;2548;52.050;11.036;2023-06-22T12:23:09;30.90;99.90
5059;DHT22;2548;52.050;11.036;2023-06-22T12:25:40;31.00;99.90
5059;DHT22;2548;52.050;11.036;2023-06-22T12:28:08;31.00;99.90
5059;DHT22;2548;52.050;11.036;2023-06-22T12:30:36;31.20;99.90
5059;DHT22;2548;52.050;11.036;2023-06-22T12:33:05;31.00;99.90
5059;DHT22;2548;52.050;11.036;2023-06-22T12:35:36;30.90;99.90
5059;DHT22;2548;52.050;11.036;2023-06-22T12:38:03;31.10;99.90
5059;DHT22;2548;52.050;11.036;2023-06-22T12:40:35;31.10;99.90
5059;DHT22;2548;52.050;11.036;2023-06-22T12:43:04;31.20;99.90
5059;DHT22;2548;52.050;11.036;2023-06-22T12:45:32;31.50;99.90
5059;DHT22;2548;52.050;11.036;2023-06-22T12:48:01;31.40;99.90
5059;DHT22;2548;52.050;11.036;2023-06-22T12:50:28;31.10;99.90
5059;DHT22;2548;52.050;11.036;2023-06-22T12:52:56;30.90;99.90
5059;DHT22;2548;52.050;11.036;2023-06-22T12:55:28;30.90;99.90
5059;DHT22;2548;52.050;11.036;2023-06-22T12:58:04;31.20;99.90
5059;DHT22;2548;52.050;11.036;2023-06-22T13:00:32;31.30;99.90
5059;DHT22;2548;52.050;11.036;2023-06-22T13:02:59;31.40;99.90
5059;DHT22;2548;52.050;11.036;2023-06-22T13:05:27;31.50;99.90
5059;DHT22;2548;52.050;11.036;2023-06-22T13:07:55;31.50;99.90
5059;DHT22;2548;52.050;11.036;2023-06-22T13:10:25;31.50;99.90
5059;DHT22;2548;52.050;11.036;2023-06-22T13:12:53;31.40;99.90
5059;DHT22;2548;52.050;11.036;2023-06-22T13:15:28;31.30;99.90
5059;DHT22;2548;52.050;11.036;2023-06-22T13:18:02;31.30;99.90
5059;DHT22;2548;52.050;11.036;2023-06-22T13:20:32;31.40;99.90
5059;DHT22;2548;52.050;11.036;2023-06-22T13:23:00;31.50;99.90
5059;DHT22;2548;52.050;11.036;2023-06-22T13:25:27;31.40;99.90
5059;DHT22;2548;52.050;11.036;2023-06-22T13:27:55;31.50;99.90
5059;DHT22;2548;52.050;11.036;2023-06-22T13:30:23;31.60;99.90
5059;DHT22;2548;52.050;11.036;2023-06-22T13:32:52;31.80;99.90
5059;DHT22;2548;52.050;11.036;2023-06-22T13:35:19;31.90;99.90
5059;DHT22;2548;52.050;11.036;2023-06-22T13:37:47;31.80;99.90
5059;DHT22;2548;52.050;11.036;2023-06-22T13:40:15;31.50;99.90
5059;DHT22;2548;52.050;11.036;2023-06-22T13:42:43;31.50;99.90
5059;DHT22;2548;52.050;11.036;2023-06-22T13:45:10;31.50;99.90
5059;DHT22;2548;52.050;11.036;2023-06-22T13:47:40;31.50;99.90
5059;DHT22;2548;52.050;11.036;2023-06-22T13:50:13;31.20;99.90
5059;DHT22;2548;52.050;11.036;2023-06-22T13:52:40;31.10;99.90
5059;DHT22;2548;52.050;11.036;2023-06-22T13:55:14;30.90;99.90
5059;DHT22;2548;52.050;11.036;2023-06-22T13:57:42;31.00;99.90
5059;DHT22;2548;52.050;11.036;2023-06-22T14:00:11;31.00;99.90
5059;DHT22;2548;52.050;11.036;2023-06-22T14:02:39;31.00;99.90
5059;DHT22;2548;52.050;11.036;2023-06-22T14:05:11;30.90;99.90
5059;DHT22;2548;52.050;11.036;2023-06-22T14:07:42;30.70;99.90
5059;DHT22;2548;52.050;11.036;2023-06-22T14:10:10;30.60;99.90
5059;DHT22;2548;52.050;11.036;2023-06-22T14:12:46;30.40;99.90
5059;DHT22;2548;52.050;11.036;2023-06-22T14:15:16;30.40;99.90
5059;DHT22;2548;52.050;11.036;2023-06-22T14:17:44;30.30;99.90
5059;DHT22;2548;52.050;11.036;2023-06-22T14:20:13;30.20;99.90
5059;DHT22;2548;52.050;11.036;2023-06-22T14:22:44;30.20;99.90
5059;DHT22;2548;52.050;11.036;2023-06-22T14:25:15;30.10;99.90
5059;DHT22;2548;52.050;11.036;2023-06-22T14:27:42;30.10;99.90
5059;DHT22;2548;52.050;11.036;2023-06-22T14:30:10;30.10;99.90
5059;DHT22;2548;52.050;11.036;2023-06-22T14:32:43;30.00;99.90
5059;DHT22;2548;52.050;11.036;2023-06-22T14:35:12;29.90;99.90
5059;DHT22;2548;52.050;11.036;2023-06-22T14:37:40;30.10;99.90
5059;DHT22;2548;52.050;11.036;2023-06-22T14:40:08;30.20;99.90
5059;DHT22;2548;52.050;11.036;2023-06-22T14:42:39;30.60;99.90
5059;DHT22;2548;52.050;11.036;2023-06-22T14:45:07;30.70;99.90
5059;DHT22;2548;52.050;11.036;2023-06-22T14:47:35;30.80;99.90
5059;DHT22;2548;52.050;11.036;2023-06-22T14:50:03;31.00;99.90
5059;DHT22;2548;52.050;11.036;2023-06-22T14:52:32;31.10;99.90
5059;DHT22;2548;52.050;11.036;2023-06-22T14:55:00;31.10;99.90
5059;DHT22;2548;52.050;11.036;2023-06-22T14:57:28;31.00;99.90
5059;DHT22;2548;52.050;11.036;2023-06-22T14:59:58;30.90;99.90
5059;DHT22;2548;52.050;11.036;2023-06-22T15:02:30;30.70;99.90
5059;DHT22;2548;52.050;11.036;2023-06-22T15:04:58;30.40;99.90
5059;DHT22;2548;52.050;11.036;2023-06-22T15:07:28;30.00;99.90
5059;DHT22;2548;52.050;11.036;2023-06-22T15:09:57;29.70;99.90
5059;DHT22;2548;52.050;11.036;2023-06-22T15:12:25;29.50;99.90
5059;DHT22;2548;52.050;11.036;2023-06-22T15:14:53;29.40;99.90
5059;DHT22;2548;52.050;11.036;2023-06-22T15:17:20;29.30;99.90
5059;DHT22;2548;52.050;11.036;2023-06-22T15:19:48;29.30;99.90
5059;DHT22;2548;52.050;11.036;2023-06-22T15:22:16;29.30;99.90
5059;DHT22;2548;52.050;11.036;2023-06-22T15:24:45;29.40;99.90
5059;DHT22;2548;52.050;11.036;2023-06-22T15:27:15;29.30;99.90
5059;DHT22;2548;52.050;11.036;2023-06-22T15:29:52;29.20;99.90
5059;DHT22;2548;52.050;11.036;2023-06-22T15:32:22;29.20;99.90
5059;DHT22;2548;52.050;11.036;2023-06-22T15:34:50;29.10;99.90
5059;DHT22;2548;52.050;11.036;2023-06-22T15:39:51;28.90;99.90
5059;DHT22;2548;52.050;11.036;2023-06-22T15:42:20;28.80;99.90
5059;DHT22;2548;52.050;11.036;2023-06-22T15:44:48;28.70;99.90
5059;DHT22;2548;52.050;11.036;2023-06-22T15:47:18;28.50;99.90
5059;DHT22;2548;52.050;11.036;2023-06-22T15:49:48;28.50;99.90
5059;DHT22;2548;52.050;11.036;2023-06-22T15:52:24;28.40;99.90
5059;DHT22;2548;52.050;11.036;2023-06-22T15:54:54;28.40;99.90
5059;DHT22;2548;52.050;11.036;2023-06-22T15:57:28;28.30;99.90
5059;DHT22;2548;52.050;11.036;2023-06-22T15:59:55;28.20;99.90
5059;DHT22;2548;52.050;11.036;2023-06-22T16:02:23;28.20;99.90
5059;DHT22;2548;52.050;11.036;2023-06-22T16:04:53;28.10;99.90